Hlavní strana
METAR-TAF:

METAR-TAF

Letiště :

Vadsø, Norsko

zeměpisná šířka: 70-04N, zeměpisná délka: 029-51E, výška: 3 m

Aktuální stav počasí

Zpráva byla vytvořena před 1 hodinou a 48 minutami, v 18:50 UTC
Jižní vítr 12 kt
Teplota 9°C
Vlhkost vzduchu 81%
Tlak 979 hPa
Viditelnost 10 km a více
Skoro jasno ve výšce 2000 ft
Oblačno až skoro zataženo ve výšce 5500 ft
slabé dešťové přeháňky

METAR: ENVD 231850Z 18012KT 9999 -SHRA FEW020 BKN055 09/06 Q0979

Čas: 22:38 (20:38 UTC)

Předpověď počasí

Zpráva byla vytvořena před 6 hodinami a 38 minutami, v 14:00 UTC
Předpověď platná od 23 v 15 UTC do 23 v 19 UTC
Jihojihozápadní vítr 15 kt
Viditelnost 10 km a více
Polojasno ve výšce 1500 ft
Oblačno až skoro zataženo ve výšce 4000 ft
slabé dešťové přeháňky

TAF: ENVD 231400Z 2315/2319 20015KT 9999 -SHRA SCT015 BKN040

Stav a předpovědi počasí z více než 4 000 letišť (zprávy METAR a TAF).

Červené a žluté tečky na mapě představují dostupné meteorologické stanice.

Když kurzor umístíte na tečku, zobrazí se název stanice.

Pak kliknutím zobrazíte stav a předpověď počasí.

Chcete-li změnit mapu, kliknutím na zelené tlačítko se znaménkem +mapu přiblížíte, kliknutím na zelené tlačítko se znaménkem – mapu oddálíte a kliknutím na zelené šipky přejdete na sousední mapy.


METAR-TAF: